createdAt,value
2023-03-05T00:02:35.571Z,29.08
2023-03-05T00:07:32.600Z,25.30
2023-03-05T00:12:29.688Z,25.85
2023-03-05T00:17:35.970Z,26.23
2023-03-05T00:22:35.331Z,28.58
2023-03-05T00:27:32.109Z,30.10
2023-03-05T00:32:29.136Z,35.80
2023-03-05T00:37:25.934Z,33.80
2023-03-05T00:42:23.465Z,32.65
2023-03-05T00:47:20.708Z,30.27
2023-03-05T00:52:17.553Z,35.38
2023-03-05T00:57:14.296Z,31.33
2023-03-05T01:02:12.036Z,32.42
2023-03-05T01:07:08.741Z,33.95
2023-03-05T01:12:06.133Z,31.77
2023-03-05T01:17:03.443Z,31.08
2023-03-05T01:22:00.989Z,32.63
2023-03-05T01:26:58.339Z,29.73
2023-03-05T01:31:55.132Z,27.08
2023-03-05T01:36:51.894Z,35.40
2023-03-05T01:41:49.340Z,30.70
2023-03-05T01:46:46.199Z,33.25
2023-03-05T01:51:51.280Z,34.35
2023-03-05T01:56:52.538Z,38.13
2023-03-05T02:01:54.530Z,31.58
2023-03-05T02:06:51.530Z,33.00
2023-03-05T02:11:49.210Z,31.52
2023-03-05T02:16:46.060Z,34.35
2023-03-05T02:21:46.189Z,37.72
2023-03-05T02:26:44.494Z,31.70
2023-03-05T02:31:41.497Z,39.25
2023-03-05T02:36:38.393Z,37.08
2023-03-05T02:41:35.989Z,38.10
2023-03-05T02:46:34.030Z,38.85
2023-03-05T02:51:31.361Z,35.47
2023-03-05T02:56:29.190Z,34.35
2023-03-05T03:01:27.793Z,39.50
2023-03-05T03:06:24.566Z,44.10
2023-03-05T03:11:21.561Z,37.13
2023-03-05T03:16:18.366Z,36.17
2023-03-05T03:21:20.536Z,33.67
2023-03-05T03:26:17.781Z,35.53
2023-03-05T03:31:14.753Z,39.38
2023-03-05T03:36:11.902Z,36.80
2023-03-05T03:41:09.403Z,39.95
2023-03-05T03:46:06.704Z,33.03
2023-03-05T03:51:07.717Z,33.25
2023-03-05T03:56:05.642Z,35.53
2023-03-05T04:01:03.652Z,38.25
2023-03-05T04:06:00.465Z,39.45
2023-03-05T04:10:57.264Z,37.83
2023-03-05T04:15:54.092Z,38.97
2023-03-05T04:20:51.533Z,35.13
2023-03-05T04:25:48.476Z,41.53
2023-03-05T04:30:45.412Z,36.65
2023-03-05T04:35:42.544Z,33.95
2023-03-05T04:40:40.183Z,37.08
2023-03-05T04:45:39.850Z,42.10
2023-03-05T04:50:36.866Z,39.35
2023-03-05T04:55:33.877Z,41.63
2023-03-05T05:00:31.406Z,43.45
2023-03-05T05:05:28.773Z,49.95
2023-03-05T05:10:26.260Z,45.05
2023-03-05T05:15:23.516Z,39.95
2023-03-05T05:20:21.278Z,34.13
2023-03-05T05:25:18.183Z,34.08
2023-03-05T05:30:15.340Z,33.55
2023-03-05T05:35:12.492Z,39.33
2023-03-05T05:40:11.554Z,37.08
2023-03-05T05:45:10.013Z,36.30
2023-03-05T05:50:07.599Z,43.08
2023-03-05T05:55:05.484Z,31.10
2023-03-05T06:00:05.276Z,36.65
2023-03-05T06:05:11.452Z,28.52
2023-03-05T06:10:09.742Z,31.67
2023-03-05T06:15:08.800Z,34.70
2023-03-05T06:20:06.682Z,32.00
2023-03-05T06:25:06.169Z,34.25
2023-03-05T06:30:04.402Z,33.80
2023-03-05T06:35:02.152Z,32.55
2023-03-05T06:39:59.070Z,35.30
2023-03-05T06:44:56.032Z,31.33
2023-03-05T06:49:52.975Z,32.78
2023-03-05T06:54:50.629Z,28.92
2023-03-05T06:59:48.012Z,38.10
2023-03-05T07:04:45.109Z,34.00
2023-03-05T07:09:48.163Z,34.38
2023-03-05T07:14:45.836Z,32.58
2023-03-05T07:19:45.120Z,30.42
2023-03-05T07:24:41.952Z,31.73
2023-03-05T07:29:38.906Z,38.35
2023-03-05T07:34:38.265Z,42.00
2023-03-05T07:39:35.709Z,37.38
2023-03-05T07:44:33.587Z,31.48
2023-03-05T07:49:30.537Z,35.50
2023-03-05T07:54:27.960Z,36.92
2023-03-05T07:59:24.751Z,33.53
2023-03-05T08:04:22.999Z,32.08
2023-03-05T08:09:20.014Z,29.98
2023-03-05T08:14:17.765Z,35.90
2023-03-05T08:19:15.171Z,31.52
2023-03-05T08:24:12.984Z,33.28
2023-03-05T08:29:10.648Z,27.98
2023-03-05T08:34:08.088Z,28.13
2023-03-05T08:39:06.247Z,32.03
2023-03-05T08:44:03.457Z,30.42
2023-03-05T08:49:00.528Z,30.75
2023-03-05T08:53:59.432Z,34.85
2023-03-05T08:58:56.217Z,30.45
2023-03-05T09:03:53.722Z,31.85
2023-03-05T09:08:50.864Z,28.33
2023-03-05T09:13:49.287Z,35.15
2023-03-05T09:18:46.507Z,35.80
2023-03-05T09:23:44.803Z,30.13
2023-03-05T09:28:42.284Z,27.90
2023-03-05T09:33:40.057Z,26.17
2023-03-05T09:38:38.601Z,27.00
2023-03-05T09:43:49.465Z,31.73
2023-03-05T09:48:51.683Z,35.83
2023-03-05T09:53:53.944Z,29.70
2023-03-05T09:58:56.099Z,30.67
2023-03-05T10:03:58.519Z,26.20
2023-03-05T10:09:00.134Z,30.58
2023-03-05T10:14:00.127Z,23.55
2023-03-05T10:19:03.870Z,28.50
2023-03-05T10:24:13.416Z,29.13
2023-03-05T10:29:23.012Z,29.08
2023-03-05T10:34:40.515Z,30.48
2023-03-05T10:39:59.680Z,27.40
2023-03-05T10:45:05.916Z,24.95
2023-03-05T10:50:17.226Z,29.67
2023-03-05T10:55:15.839Z,35.97
2023-03-05T11:00:20.619Z,29.20
2023-03-05T11:05:45.289Z,31.70
2023-03-05T11:10:46.617Z,31.27
2023-03-05T11:15:43.724Z,31.73
2023-03-05T11:20:46.507Z,25.00
2023-03-05T11:26:04.275Z,29.98
2023-03-05T11:31:08.047Z,34.30
2023-03-05T11:41:29.662Z,29.88
2023-03-05T11:46:27.766Z,29.90
2023-03-05T11:51:31.990Z,32.40
2023-03-05T11:56:33.532Z,33.77
2023-03-05T12:01:36.732Z,36.53
2023-03-05T12:06:38.593Z,31.15
2023-03-05T12:11:36.866Z,39.63
2023-03-05T12:16:39.458Z,35.60
2023-03-05T12:21:38.085Z,33.35
2023-03-05T12:27:05.357Z,31.73
2023-03-05T12:32:03.536Z,34.17
2023-03-05T12:37:00.358Z,32.35
2023-03-05T12:41:57.992Z,37.22
2023-03-05T12:47:22.812Z,32.85
2023-03-05T12:52:26.370Z,28.40
2023-03-05T12:57:28.868Z,31.45
2023-03-05T13:02:31.872Z,28.77
2023-03-05T13:07:28.819Z,27.75
2023-03-05T13:12:29.296Z,35.17
2023-03-05T13:17:29.653Z,32.80
2023-03-05T13:22:27.653Z,40.72
2023-03-05T13:27:30.534Z,29.55
2023-03-05T13:32:30.312Z,31.92
2023-03-05T13:37:30.324Z,35.65
2023-03-05T13:42:30.856Z,32.95
2023-03-05T13:47:29.829Z,33.95
2023-03-05T13:52:29.138Z,33.08
2023-03-05T13:57:36.572Z,34.70
2023-03-05T14:02:34.264Z,33.75
2023-03-05T14:07:38.589Z,34.97
2023-03-05T14:12:45.180Z,35.85
2023-03-05T14:17:43.292Z,30.92
2023-03-05T14:22:42.874Z,38.78
2023-03-05T14:27:40.550Z,36.92
2023-03-05T14:32:37.652Z,30.10
2023-03-05T14:37:36.532Z,33.58
2023-03-05T14:42:37.579Z,33.08
2023-03-05T14:47:36.605Z,38.15
2023-03-05T14:52:34.589Z,37.40
2023-03-05T14:57:32.365Z,32.85
2023-03-05T15:02:29.510Z,38.17
2023-03-05T15:07:30.954Z,33.83
2023-03-05T15:12:28.043Z,29.95
2023-03-05T15:17:33.660Z,35.55
2023-03-05T15:22:49.093Z,39.20
2023-03-05T15:27:46.214Z,33.15
2023-03-05T15:32:43.105Z,37.85
2023-03-05T15:37:42.015Z,34.50
2023-03-05T15:42:38.884Z,36.28
2023-03-05T15:47:38.728Z,41.58
2023-03-05T15:52:36.052Z,33.20
2023-03-05T15:57:37.110Z,36.38
2023-03-05T16:02:35.023Z,36.97
2023-03-05T16:07:37.294Z,45.05
2023-03-05T16:12:42.564Z,35.95
2023-03-05T16:17:44.030Z,41.10
2023-03-05T16:22:44.021Z,40.35
2023-03-05T16:27:42.300Z,44.08
2023-03-05T16:32:40.840Z,42.63
2023-03-05T16:37:39.236Z,48.97
2023-03-05T16:42:48.133Z,39.03
2023-03-05T16:47:55.264Z,44.30
2023-03-05T16:52:52.421Z,45.55
2023-03-05T16:57:50.477Z,49.85
2023-03-05T17:02:48.114Z,54.15
2023-03-05T17:07:50.399Z,60.97
2023-03-05T17:12:52.167Z,66.45
2023-03-05T17:17:49.392Z,68.63
2023-03-05T17:22:47.900Z,57.22
2023-03-05T17:27:44.816Z,68.18
2023-03-05T17:32:42.965Z,66.43
2023-03-05T17:37:39.961Z,56.47
2023-03-05T17:42:37.371Z,75.18
2023-03-05T17:47:35.075Z,89.35
2023-03-05T17:52:32.939Z,97.18
2023-03-05T17:57:29.977Z,95.13
2023-03-05T18:02:27.968Z,97.80
2023-03-05T18:07:25.210Z,87.45
2023-03-05T18:12:22.999Z,64.22
2023-03-05T18:17:21.713Z,46.88
2023-03-05T18:22:18.752Z,42.72
2023-03-05T18:27:15.756Z,39.28
2023-03-05T18:32:14.719Z,30.52
2023-03-05T18:37:12.501Z,22.42
2023-03-05T18:42:12.688Z,21.95
2023-03-05T18:47:09.586Z,21.73
2023-03-05T18:52:10.449Z,19.60
2023-03-05T18:57:14.260Z,22.42
2023-03-05T19:02:15.279Z,17.38
2023-03-05T19:07:17.170Z,22.23
2023-03-05T19:12:14.212Z,16.88
2023-03-05T19:17:13.288Z,17.38
2023-03-05T19:22:13.789Z,18.27
2023-03-05T19:27:13.412Z,19.45
2023-03-05T19:32:12.387Z,18.80
2023-03-05T19:37:10.441Z,27.30
2023-03-05T19:42:11.419Z,28.55
2023-03-05T19:47:09.842Z,25.58
2023-03-05T19:52:06.936Z,23.98
2023-03-05T19:57:04.059Z,22.92
2023-03-05T20:02:01.761Z,20.05
2023-03-05T20:06:58.756Z,18.00
2023-03-05T20:11:57.281Z,17.42
2023-03-05T20:17:01.419Z,19.10
2023-03-05T20:21:59.012Z,16.38
2023-03-05T20:26:57.872Z,18.33
2023-03-05T20:31:56.310Z,18.00
2023-03-05T20:36:53.159Z,17.75
2023-03-05T20:41:50.831Z,19.23
2023-03-05T20:47:26.940Z,16.48
2023-03-05T20:52:31.935Z,17.70
2023-03-05T20:57:29.660Z,17.05
2023-03-05T21:02:29.078Z,13.18
2023-03-05T21:07:28.959Z,13.80
2023-03-05T21:12:25.977Z,15.00
2023-03-05T21:17:23.569Z,15.27
2023-03-05T21:22:20.465Z,14.35
2023-03-05T21:27:17.386Z,13.93
2023-03-05T21:32:14.673Z,13.57
2023-03-05T21:37:12.329Z,14.27
2023-03-05T21:42:11.181Z,11.77
2023-03-05T21:47:08.350Z,13.13
2023-03-05T21:52:08.964Z,12.30
2023-03-05T21:57:07.933Z,13.52
2023-03-05T22:02:04.823Z,13.00
2023-03-05T22:07:01.655Z,12.82
2023-03-05T22:11:58.545Z,15.45
2023-03-05T22:17:01.538Z,13.15
2023-03-05T22:21:58.682Z,14.25
2023-03-05T22:26:55.620Z,14.35
2023-03-05T22:31:54.232Z,13.43
2023-03-05T22:36:51.750Z,11.43
2023-03-05T22:41:48.692Z,9.77
2023-03-05T22:46:45.836Z,10.00
2023-03-05T22:51:42.836Z,12.30
2023-03-05T22:56:40.387Z,11.38
2023-03-05T23:01:37.296Z,10.68
2023-03-05T23:06:34.244Z,11.43
2023-03-05T23:11:35.540Z,9.55
2023-03-05T23:16:43.345Z,14.35
2023-03-05T23:21:40.301Z,13.75
2023-03-05T23:26:37.112Z,11.32
2023-03-05T23:31:33.859Z,11.43
2023-03-05T23:36:31.462Z,13.40
2023-03-05T23:41:28.722Z,12.43
2023-03-05T23:46:25.625Z,12.45
2023-03-05T23:51:22.478Z,12.15
2023-03-05T23:56:20.089Z,11.27
